createdAt,value
2022-09-06T00:00:30.783Z,25.65
2022-09-06T00:02:59.483Z,25.62
2022-09-06T00:05:28.727Z,25.58
2022-09-06T00:07:59.179Z,25.57
2022-09-06T00:10:30.075Z,25.53
2022-09-06T00:13:03.322Z,25.49
2022-09-06T00:15:31.966Z,25.48
2022-09-06T00:18:01.203Z,25.46
2022-09-06T00:20:31.172Z,25.40
2022-09-06T00:23:00.182Z,25.39
2022-09-06T00:25:30.992Z,25.36
2022-09-06T00:28:00.552Z,25.35
2022-09-06T00:30:30.074Z,25.32
2022-09-06T00:32:58.708Z,25.29
2022-09-06T00:35:28.333Z,25.25
2022-09-06T00:37:58.432Z,25.22
2022-09-06T00:40:27.432Z,25.19
2022-09-06T00:42:57.756Z,25.17
2022-09-06T00:45:28.547Z,25.13
2022-09-06T00:47:59.104Z,25.06
2022-09-06T00:50:28.202Z,25.05
2022-09-06T00:52:56.708Z,25.03
2022-09-06T00:55:26.285Z,25.03
2022-09-06T00:57:56.932Z,25.03
2022-09-06T01:00:25.807Z,24.99
2022-09-06T01:02:55.549Z,24.95
2022-09-06T01:05:29.339Z,24.94
2022-09-06T01:08:06.799Z,24.88
2022-09-06T01:10:49.845Z,24.83
2022-09-06T01:13:29.905Z,24.84
2022-09-06T01:16:07.906Z,24.82
2022-09-06T01:18:50.424Z,24.80
2022-09-06T01:21:27.710Z,24.79
2022-09-06T01:24:29.372Z,24.74
2022-09-06T01:27:31.931Z,24.64
2022-09-06T01:30:05.449Z,24.66
2022-09-06T01:32:41.037Z,24.66
2022-09-06T01:35:19.130Z,24.64
2022-09-06T01:37:48.215Z,24.63
2022-09-06T01:40:17.047Z,24.60
2022-09-06T01:42:47.446Z,24.62
2022-09-06T01:45:20.901Z,24.58
2022-09-06T01:47:58.895Z,24.57
2022-09-06T01:50:58.756Z,24.56
2022-09-06T01:53:41.812Z,24.51
2022-09-06T01:56:20.897Z,24.50
2022-09-06T01:59:09.134Z,24.49
2022-09-06T02:01:48.792Z,24.46
2022-09-06T02:04:24.396Z,24.42
2022-09-06T02:06:59.012Z,24.41
2022-09-06T02:09:31.012Z,24.41
2022-09-06T02:12:02.695Z,24.41
2022-09-06T02:14:36.589Z,24.39
2022-09-06T02:17:10.097Z,24.38
2022-09-06T02:19:44.796Z,24.30
2022-09-06T02:22:16.242Z,24.32
2022-09-06T02:24:46.920Z,24.29
2022-09-06T02:27:15.752Z,24.27
2022-09-06T02:29:45.026Z,24.27
2022-09-06T02:32:19.293Z,24.27
2022-09-06T02:34:48.063Z,24.26
2022-09-06T02:37:18.171Z,24.25
2022-09-06T02:39:46.657Z,24.23
2022-09-06T02:42:17.642Z,24.25
2022-09-06T02:44:46.114Z,24.23
2022-09-06T02:47:16.871Z,24.20
2022-09-06T02:49:45.381Z,24.19
2022-09-06T02:52:13.817Z,24.21
2022-09-06T02:54:42.227Z,24.19
2022-09-06T02:57:10.663Z,24.21
2022-09-06T02:59:39.033Z,24.21
2022-09-06T03:02:07.496Z,24.23
2022-09-06T03:04:37.368Z,24.23
2022-09-06T03:07:05.901Z,24.21
2022-09-06T03:09:34.398Z,24.20
2022-09-06T03:12:02.811Z,24.20
2022-09-06T03:14:31.156Z,24.19
2022-09-06T03:16:59.609Z,24.17
2022-09-06T03:19:28.000Z,24.17
2022-09-06T03:21:57.813Z,24.20
2022-09-06T03:24:26.190Z,24.19
2022-09-06T03:26:54.674Z,24.19
2022-09-06T03:29:23.088Z,24.18
2022-09-06T03:31:51.484Z,24.17
2022-09-06T03:34:19.863Z,24.15
2022-09-06T03:36:48.444Z,24.15
2022-09-06T03:39:18.244Z,24.18
2022-09-06T03:41:46.594Z,24.20
2022-09-06T03:44:15.041Z,24.13
2022-09-06T03:46:43.458Z,24.09
2022-09-06T03:49:11.997Z,24.05
2022-09-06T03:51:40.327Z,24.08
2022-09-06T03:54:08.710Z,24.02
2022-09-06T03:56:38.709Z,24.06
2022-09-06T03:59:07.164Z,24.01
2022-09-06T04:01:35.602Z,24.00
2022-09-06T04:04:04.609Z,23.99
2022-09-06T04:06:33.060Z,23.98
2022-09-06T04:09:01.426Z,23.95
2022-09-06T04:11:29.794Z,23.91
2022-09-06T04:13:59.579Z,23.87
2022-09-06T04:16:27.923Z,23.87
2022-09-06T04:18:56.397Z,23.86
2022-09-06T04:21:24.926Z,23.87
2022-09-06T04:23:53.387Z,23.85
2022-09-06T04:26:21.879Z,23.84
2022-09-06T04:28:50.559Z,23.81
2022-09-06T04:31:20.604Z,23.81
2022-09-06T04:33:49.058Z,23.82
2022-09-06T04:36:17.381Z,23.80
2022-09-06T04:38:46.701Z,23.80
2022-09-06T04:41:17.027Z,23.81
2022-09-06T04:43:45.529Z,23.73
2022-09-06T04:46:20.637Z,23.72
2022-09-06T04:48:50.764Z,23.65
2022-09-06T04:51:19.552Z,23.60
2022-09-06T04:53:48.680Z,23.54
2022-09-06T04:56:19.658Z,23.54
2022-09-06T04:58:49.443Z,23.51
2022-09-06T05:01:18.224Z,23.53
2022-09-06T05:03:46.699Z,23.47
2022-09-06T05:06:22.539Z,23.45
2022-09-06T05:08:51.216Z,23.46
2022-09-06T05:11:20.224Z,23.46
2022-09-06T05:13:50.259Z,23.46
2022-09-06T05:16:18.902Z,23.46
2022-09-06T05:18:47.336Z,23.45
2022-09-06T05:21:17.184Z,23.45
2022-09-06T05:23:45.784Z,23.47
2022-09-06T05:26:13.987Z,23.43
2022-09-06T05:28:42.051Z,23.45
2022-09-06T05:31:11.931Z,23.47
2022-09-06T05:33:40.309Z,23.50
2022-09-06T05:36:09.136Z,23.53
2022-09-06T05:38:38.588Z,23.55
2022-09-06T05:41:06.822Z,23.52
2022-09-06T05:43:34.926Z,23.52
2022-09-06T05:46:03.207Z,23.53
2022-09-06T05:48:36.695Z,23.54
2022-09-06T05:51:07.190Z,23.52
2022-09-06T05:53:36.479Z,23.50
2022-09-06T05:56:07.365Z,23.49
2022-09-06T05:58:35.615Z,23.46
2022-09-06T06:01:09.285Z,23.50
2022-09-06T06:03:37.638Z,23.45
2022-09-06T06:06:06.146Z,23.42
2022-09-06T06:08:34.253Z,23.38
2022-09-06T06:11:03.040Z,23.35
2022-09-06T06:13:35.066Z,23.28
2022-09-06T06:16:04.374Z,23.26
2022-09-06T06:18:32.497Z,23.23
2022-09-06T06:21:11.003Z,23.23
2022-09-06T06:23:39.550Z,23.23
2022-09-06T06:26:08.579Z,23.21
2022-09-06T06:28:38.917Z,23.22
2022-09-06T06:31:08.554Z,23.22
2022-09-06T06:33:37.932Z,23.12
2022-09-06T06:36:08.022Z,23.15
2022-09-06T06:38:38.495Z,23.23
2022-09-06T06:41:07.713Z,23.25
2022-09-06T06:43:38.021Z,23.29
2022-09-06T06:46:08.267Z,23.27
2022-09-06T06:48:36.771Z,23.31
2022-09-06T06:51:05.284Z,23.32
2022-09-06T06:53:33.854Z,23.32
2022-09-06T06:56:01.996Z,23.31
2022-09-06T06:58:32.103Z,23.40
2022-09-06T07:01:01.767Z,23.52
2022-09-06T07:03:29.983Z,23.60
2022-09-06T07:06:13.658Z,23.61
2022-09-06T07:08:42.301Z,23.52
2022-09-06T07:11:11.886Z,23.50
2022-09-06T07:13:40.373Z,23.56
2022-09-06T07:16:11.888Z,23.65
2022-09-06T07:18:42.399Z,23.73
2022-09-06T07:24:08.395Z,23.71
2022-09-06T07:26:38.909Z,23.71
2022-09-06T07:29:08.598Z,23.77
2022-09-06T07:34:28.147Z,23.83
2022-09-06T07:36:56.535Z,23.88
2022-09-06T07:39:24.843Z,23.98
2022-09-06T07:41:52.965Z,24.03
2022-09-06T07:44:21.090Z,24.10
2022-09-06T07:46:52.656Z,24.20
2022-09-06T07:49:20.859Z,24.21
2022-09-06T07:51:49.435Z,24.33
2022-09-06T07:54:32.802Z,24.44
2022-09-06T07:57:00.888Z,24.49
2022-09-06T07:59:28.969Z,24.61
2022-09-06T08:01:58.504Z,24.85
2022-09-06T08:04:26.759Z,24.95
2022-09-06T08:09:45.373Z,25.22
2022-09-06T08:12:13.430Z,25.34
2022-09-06T08:14:41.514Z,25.47
2022-09-06T08:17:11.010Z,25.59
2022-09-06T08:19:39.130Z,25.68
2022-09-06T08:22:07.188Z,25.71
2022-09-06T08:24:36.444Z,25.71
2022-09-06T08:27:07.669Z,25.73
2022-09-06T08:29:35.778Z,25.71
2022-09-06T08:32:04.573Z,25.67
2022-09-06T08:34:34.018Z,25.66
2022-09-06T08:37:02.128Z,25.66
2022-09-06T08:39:30.297Z,25.62
2022-09-06T08:42:03.057Z,25.57
2022-09-06T08:47:23.671Z,25.54
2022-09-06T08:49:57.240Z,25.58
2022-09-06T08:52:45.273Z,25.53
2022-09-06T08:55:29.212Z,25.46
2022-09-06T08:58:09.845Z,25.42
2022-09-06T09:00:40.854Z,25.46
2022-09-06T09:03:16.683Z,25.51
2022-09-06T09:05:51.831Z,25.53
2022-09-06T09:08:25.909Z,25.57
2022-09-06T09:10:59.693Z,25.59
2022-09-06T09:13:32.691Z,25.62
2022-09-06T09:16:01.006Z,25.69
2022-09-06T09:18:33.517Z,25.72
2022-09-06T09:21:03.805Z,25.64
2022-09-06T09:23:32.042Z,25.64
2022-09-06T09:26:04.402Z,25.61
2022-09-06T09:28:33.008Z,25.54
2022-09-06T09:31:01.121Z,25.50
2022-09-06T09:33:31.970Z,25.63
2022-09-06T09:36:02.989Z,25.63
2022-09-06T09:38:33.911Z,25.74
2022-09-06T09:41:03.952Z,25.95
2022-09-06T09:43:33.933Z,26.05
2022-09-06T09:46:14.295Z,26.08
2022-09-06T09:48:49.591Z,26.42
2022-09-06T09:51:26.685Z,26.78
2022-09-06T09:53:57.013Z,26.80
2022-09-06T09:56:38.050Z,26.68
2022-09-06T09:59:18.181Z,26.61
2022-09-06T10:01:46.271Z,27.02
2022-09-06T10:07:15.886Z,27.73
2022-09-06T10:09:45.168Z,27.96
2022-09-06T10:12:28.431Z,28.33
2022-09-06T10:14:57.776Z,28.61
2022-09-06T10:17:32.223Z,28.92
2022-09-06T10:20:05.127Z,29.01
2022-09-06T10:22:43.508Z,29.07
2022-09-06T10:25:37.355Z,29.28
2022-09-06T10:28:28.550Z,29.37
2022-09-06T10:31:09.330Z,29.52
2022-09-06T10:33:47.003Z,29.37
2022-09-06T10:36:17.391Z,29.87
2022-09-06T10:38:54.927Z,30.20
2022-09-06T10:41:59.604Z,29.98
2022-09-06T10:44:44.570Z,29.76
2022-09-06T10:47:15.212Z,30.10
2022-09-06T10:49:46.341Z,30.56
2022-09-06T10:52:18.057Z,30.68
2022-09-06T10:54:47.961Z,30.44
2022-09-06T11:00:13.587Z,30.52
2022-09-06T11:02:47.450Z,30.79
2022-09-06T11:11:07.431Z,31.24
2022-09-06T11:13:35.517Z,31.43
2022-09-06T11:16:09.708Z,31.79
2022-09-06T11:18:44.112Z,31.95
2022-09-06T11:21:49.468Z,32.20
2022-09-06T11:24:24.815Z,32.38
2022-09-06T11:27:05.855Z,32.61
2022-09-06T11:29:35.667Z,32.88
2022-09-06T11:32:21.529Z,33.13
2022-09-06T11:34:56.276Z,33.16
2022-09-06T11:37:28.942Z,33.15
2022-09-06T11:40:29.393Z,33.40
2022-09-06T11:43:15.999Z,33.29
2022-09-06T11:45:50.041Z,33.28
2022-09-06T11:49:03.059Z,33.57
2022-09-06T11:51:38.135Z,34.01
2022-09-06T11:54:23.020Z,34.24
2022-09-06T11:56:58.274Z,34.59
2022-09-06T11:59:44.864Z,34.83
2022-09-06T12:02:36.381Z,34.76
2022-09-06T12:05:29.107Z,34.89
2022-09-06T12:08:29.616Z,34.91
2022-09-06T12:11:21.539Z,35.34
2022-09-06T12:13:55.641Z,35.82
2022-09-06T12:16:25.745Z,36.04
2022-09-06T12:19:00.032Z,36.23
2022-09-06T12:21:52.372Z,36.29
2022-09-06T12:24:53.360Z,36.22
2022-09-06T12:27:22.836Z,36.41
2022-09-06T12:29:59.578Z,36.39
2022-09-06T12:32:36.842Z,36.15
2022-09-06T12:38:03.015Z,36.10
2022-09-06T12:40:34.153Z,36.37
2022-09-06T12:43:04.885Z,36.24
2022-09-06T12:45:33.879Z,35.97
2022-09-06T12:48:09.273Z,36.21
2022-09-06T12:50:38.621Z,36.23
2022-09-06T12:53:24.617Z,36.08
2022-09-06T12:56:05.549Z,36.37
2022-09-06T12:58:34.235Z,36.59
2022-09-06T13:01:09.917Z,36.51
2022-09-06T13:03:45.266Z,36.22
2022-09-06T13:06:23.250Z,35.87
2022-09-06T13:08:57.200Z,35.53
2022-09-06T13:11:29.683Z,34.80
2022-09-06T13:13:58.350Z,34.36
2022-09-06T13:16:29.469Z,34.12
2022-09-06T13:19:12.979Z,34.04
2022-09-06T13:21:42.800Z,34.17
2022-09-06T13:24:22.304Z,34.07
2022-09-06T13:26:51.168Z,34.10
2022-09-06T13:29:27.285Z,34.05
2022-09-06T13:31:58.150Z,34.01
2022-09-06T13:34:30.153Z,34.09
2022-09-06T13:37:02.396Z,34.12
2022-09-06T13:39:32.966Z,34.01
2022-09-06T13:42:03.586Z,34.10
2022-09-06T13:44:33.714Z,34.19
2022-09-06T13:47:02.618Z,34.24
2022-09-06T13:49:32.899Z,34.15
2022-09-06T13:52:03.205Z,34.27
2022-09-06T13:54:32.506Z,34.35
2022-09-06T13:57:01.842Z,34.38
2022-09-06T13:59:31.631Z,34.41
2022-09-06T14:02:03.932Z,34.10
2022-09-06T14:04:33.818Z,34.04
2022-09-06T14:07:02.645Z,34.11
2022-09-06T14:09:31.268Z,34.09
2022-09-06T14:11:59.699Z,34.18
2022-09-06T14:14:28.348Z,34.25
2022-09-06T14:16:57.152Z,34.30
2022-09-06T14:19:25.698Z,34.36
2022-09-06T14:21:55.905Z,34.35
2022-09-06T14:24:24.336Z,34.17
2022-09-06T14:26:52.749Z,34.08
2022-09-06T14:29:21.131Z,33.97
2022-09-06T14:31:49.840Z,33.75
2022-09-06T14:34:18.507Z,33.55
2022-09-06T14:36:46.809Z,33.53
2022-09-06T14:39:16.847Z,33.61
2022-09-06T14:41:45.419Z,33.87
2022-09-06T14:44:13.909Z,34.00
2022-09-06T14:46:42.392Z,33.89
2022-09-06T14:49:11.489Z,33.99
2022-09-06T14:51:40.816Z,34.12
2022-09-06T14:54:11.459Z,33.81
2022-09-06T14:56:43.722Z,33.55
2022-09-06T14:59:12.581Z,33.30
2022-09-06T15:01:41.553Z,33.36
2022-09-06T15:04:12.502Z,33.41
2022-09-06T15:06:47.190Z,33.36
2022-09-06T15:09:16.233Z,33.42
2022-09-06T15:11:48.129Z,33.51
2022-09-06T15:14:18.266Z,33.62
2022-09-06T15:16:49.781Z,33.62
2022-09-06T15:19:20.996Z,33.48
2022-09-06T15:21:49.724Z,33.45
2022-09-06T15:24:18.889Z,33.43
2022-09-06T15:26:48.885Z,33.25
2022-09-06T15:29:18.032Z,33.19
2022-09-06T15:31:50.434Z,33.02
2022-09-06T15:34:20.047Z,32.92
2022-09-06T15:36:48.682Z,32.92
2022-09-06T15:39:17.382Z,32.81
2022-09-06T15:41:45.957Z,32.78
2022-09-06T15:44:17.954Z,32.79
2022-09-06T15:46:50.010Z,32.88
2022-09-06T15:49:23.289Z,32.94
2022-09-06T15:51:54.819Z,32.93
2022-09-06T15:54:45.325Z,32.88
2022-09-06T15:57:16.551Z,32.91
2022-09-06T15:59:47.183Z,32.84
2022-09-06T16:02:16.195Z,32.76
2022-09-06T16:04:44.836Z,32.81
2022-09-06T16:07:13.566Z,32.76
2022-09-06T16:09:42.674Z,32.71
2022-09-06T16:12:11.074Z,32.62
2022-09-06T16:14:39.796Z,32.62
2022-09-06T16:17:09.693Z,32.68
2022-09-06T16:19:38.175Z,32.66
2022-09-06T16:22:06.634Z,32.54
2022-09-06T16:24:35.072Z,32.49
2022-09-06T16:27:03.565Z,32.35
2022-09-06T16:29:31.972Z,32.25
2022-09-06T16:32:00.774Z,32.16
2022-09-06T16:34:30.713Z,32.10
2022-09-06T16:37:00.448Z,31.97
2022-09-06T16:39:28.844Z,31.87
2022-09-06T16:41:57.324Z,31.79
2022-09-06T16:44:26.039Z,31.79
2022-09-06T16:46:56.134Z,31.72
2022-09-06T16:49:25.009Z,31.64
2022-09-06T16:51:55.172Z,31.61
2022-09-06T16:54:23.670Z,31.48
2022-09-06T16:56:52.657Z,31.28
2022-09-06T16:59:21.791Z,31.14
2022-09-06T17:01:51.489Z,30.98
2022-09-06T17:04:20.205Z,30.81
2022-09-06T17:06:48.575Z,30.69
2022-09-06T17:09:20.917Z,30.59
2022-09-06T17:11:50.309Z,30.47
2022-09-06T17:14:18.961Z,30.36
2022-09-06T17:17:05.175Z,30.23
2022-09-06T17:19:36.613Z,30.06
2022-09-06T17:22:05.611Z,29.93
2022-09-06T17:24:35.787Z,29.83
2022-09-06T17:27:04.150Z,29.68
2022-09-06T17:29:32.932Z,29.53
2022-09-06T17:32:03.874Z,29.41
2022-09-06T17:34:34.987Z,29.27
2022-09-06T17:37:03.309Z,29.17
2022-09-06T17:39:31.602Z,29.07
2022-09-06T17:42:02.177Z,28.99
2022-09-06T17:44:30.337Z,28.89
2022-09-06T17:47:14.820Z,28.80
2022-09-06T17:49:43.517Z,28.80
2022-09-06T17:52:11.725Z,28.64
2022-09-06T17:54:39.854Z,28.53
2022-09-06T17:57:09.409Z,28.43
2022-09-06T17:59:38.467Z,28.31
2022-09-06T18:02:06.765Z,28.23
2022-09-06T18:04:35.006Z,28.16
2022-09-06T18:07:03.331Z,28.05
2022-09-06T18:09:31.713Z,27.97
2022-09-06T18:11:59.838Z,27.91
2022-09-06T18:14:29.593Z,27.85
2022-09-06T18:16:57.939Z,27.72
2022-09-06T18:19:26.919Z,27.69
2022-09-06T18:21:55.330Z,27.61
2022-09-06T18:24:23.944Z,27.55
2022-09-06T18:26:52.005Z,27.44
2022-09-06T18:29:20.824Z,27.37
2022-09-06T18:31:53.527Z,27.30
2022-09-06T18:34:22.193Z,27.25
2022-09-06T18:36:50.358Z,27.21
2022-09-06T18:39:19.090Z,27.20
2022-09-06T18:42:07.033Z,27.12
2022-09-06T18:44:36.423Z,27.05
2022-09-06T18:47:07.566Z,27.00
2022-09-06T18:49:39.462Z,26.94
2022-09-06T18:52:10.256Z,26.87
2022-09-06T18:54:38.291Z,26.83
2022-09-06T18:57:06.450Z,26.81
2022-09-06T18:59:34.489Z,26.77
2022-09-06T19:02:02.779Z,26.72
2022-09-06T19:04:32.338Z,26.67
2022-09-06T19:07:02.437Z,26.60
2022-09-06T19:09:30.595Z,26.54
2022-09-06T19:11:58.776Z,26.50
2022-09-06T19:14:26.966Z,26.41
2022-09-06T19:16:55.145Z,26.36
2022-09-06T19:19:23.552Z,26.31
2022-09-06T19:21:53.051Z,26.26
2022-09-06T19:24:24.577Z,26.16
2022-09-06T19:26:55.196Z,26.13
2022-09-06T19:29:23.291Z,26.08
2022-09-06T19:31:52.203Z,26.02
2022-09-06T19:34:20.460Z,25.97
2022-09-06T19:36:50.172Z,25.95
2022-09-06T19:39:21.433Z,25.87
2022-09-06T19:41:49.622Z,25.79
2022-09-06T19:44:18.516Z,25.81
2022-09-06T19:46:47.468Z,25.77
2022-09-06T19:49:17.456Z,25.75
2022-09-06T19:51:46.597Z,25.68
2022-09-06T19:54:15.816Z,25.60
2022-09-06T19:56:46.250Z,25.53
2022-09-06T19:59:15.855Z,25.49
2022-09-06T20:01:45.328Z,25.48
2022-09-06T20:04:14.782Z,25.47
2022-09-06T20:06:43.155Z,25.42
2022-09-06T20:09:12.225Z,25.37
2022-09-06T20:11:42.553Z,25.37
2022-09-06T20:14:13.167Z,25.31
2022-09-06T20:16:42.722Z,25.28
2022-09-06T20:19:12.502Z,25.20
2022-09-06T20:21:40.615Z,25.17
2022-09-06T20:24:09.091Z,25.09
2022-09-06T20:26:37.768Z,25.08
2022-09-06T20:29:06.650Z,25.18
2022-09-06T20:31:37.937Z,25.14
2022-09-06T20:34:07.777Z,25.12
2022-09-06T20:36:36.180Z,25.07
2022-09-06T20:39:04.432Z,25.06
2022-09-06T20:41:34.030Z,24.86
2022-09-06T20:44:02.187Z,24.79
2022-09-06T20:46:33.338Z,24.77
2022-09-06T20:49:04.760Z,24.80
2022-09-06T20:51:34.209Z,24.75
2022-09-06T20:54:03.445Z,24.73
2022-09-06T20:56:34.478Z,24.70
2022-09-06T20:59:04.702Z,24.66
2022-09-06T21:01:35.141Z,24.64
2022-09-06T21:04:07.105Z,24.61
2022-09-06T21:06:37.146Z,24.58
2022-09-06T21:09:06.580Z,24.53
2022-09-06T21:11:35.421Z,24.50
2022-09-06T21:14:04.435Z,24.46
2022-09-06T21:16:33.121Z,24.39
2022-09-06T21:19:02.943Z,24.40
2022-09-06T21:21:34.561Z,24.36
2022-09-06T21:24:04.315Z,24.36
2022-09-06T21:26:32.600Z,24.31
2022-09-06T21:29:01.339Z,24.28
2022-09-06T21:31:31.077Z,24.28
2022-09-06T21:34:02.062Z,24.23
2022-09-06T21:36:33.274Z,24.20
2022-09-06T21:39:03.514Z,24.19
2022-09-06T21:41:34.429Z,24.21
2022-09-06T21:44:04.048Z,24.20
2022-09-06T21:46:33.911Z,24.18
2022-09-06T21:49:04.109Z,24.14
2022-09-06T21:51:33.919Z,24.15
2022-09-06T21:54:05.014Z,24.13
2022-09-06T21:56:33.998Z,24.12
2022-09-06T21:59:02.315Z,24.11
2022-09-06T22:01:32.620Z,24.12
2022-09-06T22:04:02.312Z,24.10
2022-09-06T22:06:34.046Z,24.12
2022-09-06T22:09:04.180Z,24.15
2022-09-06T22:11:34.033Z,24.17
2022-09-06T22:14:04.400Z,24.26
2022-09-06T22:16:33.669Z,24.30
2022-09-06T22:19:02.046Z,24.31
2022-09-06T22:21:30.202Z,24.31
2022-09-06T22:24:02.809Z,24.32
2022-09-06T22:26:32.689Z,24.32
2022-09-06T22:29:02.447Z,24.28
2022-09-06T22:31:32.168Z,24.28
2022-09-06T22:34:00.527Z,24.30
2022-09-06T22:36:29.092Z,24.30
2022-09-06T22:38:57.881Z,24.31
2022-09-06T22:41:28.571Z,24.29
2022-09-06T22:43:56.677Z,24.25
2022-09-06T22:46:24.927Z,24.24
2022-09-06T22:48:53.217Z,24.25
2022-09-06T22:51:21.749Z,24.20
2022-09-06T22:53:49.790Z,24.23
2022-09-06T22:56:17.949Z,24.21
2022-09-06T22:58:47.443Z,24.20
2022-09-06T23:01:17.256Z,24.18
2022-09-06T23:03:46.099Z,24.18
2022-09-06T23:06:14.207Z,24.14
2022-09-06T23:08:42.486Z,24.11
2022-09-06T23:11:12.332Z,24.11
2022-09-06T23:13:43.452Z,23.92
2022-09-06T23:16:15.245Z,23.99
2022-09-06T23:18:44.426Z,23.98
2022-09-06T23:21:15.334Z,24.01
2022-09-06T23:23:44.292Z,23.98
2022-09-06T23:26:14.969Z,23.98
2022-09-06T23:28:43.783Z,23.99
2022-09-06T23:31:15.300Z,23.99
2022-09-06T23:33:43.943Z,23.99
2022-09-06T23:36:13.835Z,23.96
2022-09-06T23:38:42.778Z,23.92
2022-09-06T23:41:11.423Z,23.86
2022-09-06T23:43:41.050Z,23.87
2022-09-06T23:46:10.084Z,23.87
2022-09-06T23:48:39.997Z,23.89
2022-09-06T23:51:08.680Z,23.91
2022-09-06T23:53:37.081Z,23.88
2022-09-06T23:56:05.897Z,23.89
2022-09-06T23:58:34.340Z,23.87
